Bill Street, United Kingdom
Current Conditions -  °F | °C
As of 7:50 PM on Thursday 27 Nov 2014 (Local Time) from EGMC Reporting Station
Few Clouds Few Clouds  
Wind Chill: 50°   Ceiling: Unl
Heat Index: 50°   Visibility: 6mi
Dew Point: 48°   Wind: 6mph
Humidity: 94%   Direction: 130°SE
Pressure: 29.59"   Gusts: NA
Location:  51.41°N, 0.54°E
Report Text: EGMC 271950Z 13005KT 9999 FEW021 10/09 Q1002
Loading
Personal Weather Stations






























Interactive Weather Map New forecast layout! Learn more

10-Day Weather Forecast

Advertisements
Track Severe Weather on mobile